Time;durP1;ratioP1;P1;durP2;ratioP2;P2;SDS_P1;SDS_P2;PMS_P1;PMS_P2;Temp;Humidity;BMP_temperature;BMP_pressure;BME280_temperature;BME280_humidity;BME280_pressure;Samples;Min_cycle;Max_cycle;Signal;HPM_P1;HPM_P2
2023/06/18 00:01:13;;;;;;;8.65;7.35;;;;;;;18.74;38.98;95473.47;4973109;28;20232;-77
2023/06/18 00:03:39;;;;;;;9.02;7.57;;;;;;;18.71;39.48;95475.66;4982636;28;20199;-77
2023/06/18 00:06:04;;;;;;;8.00;7.22;;;;;;;18.69;38.96;95467.97;4978221;28;20175;-78
2023/06/18 00:08:30;;;;;;;8.70;7.90;;;;;;;18.68;38.77;95469.81;4985911;28;20197;-78
2023/06/18 00:10:55;;;;;;;7.90;7.20;;;;;;;18.65;39.29;95466.78;4977002;28;20670;-78
2023/06/18 00:13:20;;;;;;;10.43;7.38;;;;;;;18.65;39.43;95459.69;4990922;28;20202;-78
2023/06/18 00:15:46;;;;;;;8.55;7.55;;;;;;;18.62;39.09;95461.84;4983763;28;20684;-77
2023/06/18 00:18:11;;;;;;;8.65;7.07;;;;;;;18.68;38.83;95466.38;4978122;28;20315;-78
2023/06/18 00:20:36;;;;;;;7.75;7.00;;;;;;;18.59;38.98;95468.34;5000593;28;20543;-78
2023/06/18 00:23:02;;;;;;;10.45;8.45;;;;;;;18.56;39.13;95465.31;4985671;28;20270;-78
2023/06/18 00:25:27;;;;;;;9.63;7.78;;;;;;;18.51;39.21;95465.88;4996370;28;20588;-78
2023/06/18 00:27:53;;;;;;;7.90;6.68;;;;;;;18.51;38.83;95468.53;4985321;28;20191;-78
2023/06/18 00:30:18;;;;;;;10.23;7.45;;;;;;;18.59;38.90;95464.91;5010642;28;20202;-78
2023/06/18 00:32:45;;;;;;;7.93;6.72;;;;;;;18.57;39.07;95464.28;4974975;28;20211;-77
2023/06/18 00:35:11;;;;;;;7.47;6.60;;;;;;;18.51;39.00;95460.63;4984002;28;20273;-78
2023/06/18 00:37:36;;;;;;;8.57;6.40;;;;;;;18.53;38.71;95457.78;4977357;28;20199;-78
2023/06/18 00:40:03;;;;;;;9.60;7.00;;;;;;;18.52;38.49;95456.19;5001479;28;20563;-78
2023/06/18 00:42:28;;;;;;;8.98;6.80;;;;;;;18.55;38.47;95458.41;5008717;28;20218;-78
2023/06/18 00:44:54;;;;;;;11.18;7.30;;;;;;;18.53;38.26;95460.44;4992424;28;20207;-78
2023/06/18 00:47:20;;;;;;;10.50;7.65;;;;;;;18.47;38.42;95451.53;4984909;28;20183;-78
2023/06/18 00:49:46;;;;;;;6.38;5.78;;;;;;;18.50;38.21;95443.25;4980572;28;20694;-78
2023/06/18 00:52:15;;;;;;;7.07;6.30;;;;;;;18.47;38.47;95448.09;4972181;28;20214;-78
2023/06/18 00:54:42;;;;;;;9.82;7.18;;;;;;;18.48;38.51;95449.72;4987838;28;20231;-78
2023/06/18 00:57:08;;;;;;;7.22;6.53;;;;;;;18.45;38.59;95445.63;4965558;28;20183;-78
2023/06/18 00:59:34;;;;;;;7.88;6.95;;;;;;;18.42;38.30;95447.88;4985792;28;20184;-78
2023/06/18 01:02:01;;;;;;;7.43;6.70;;;;;;;18.37;38.72;95438.75;4973779;28;20183;-78
2023/06/18 01:04:27;;;;;;;8.98;6.75;;;;;;;18.38;38.70;95440.38;4981216;28;20200;-78
2023/06/18 01:06:54;;;;;;;7.22;6.53;;;;;;;18.38;38.53;95435.13;4987413;28;20226;-78
2023/06/18 01:09:23;;;;;;;7.97;6.28;;;;;;;18.38;38.42;95431.69;4994370;28;20242;-78
2023/06/18 01:11:53;;;;;;;7.47;6.32;;;;;;;18.34;38.48;95433.88;4955706;28;20183;-78
2023/06/18 01:14:21;;;;;;;9.43;6.43;;;;;;;18.38;38.27;95437.75;4990316;28;20249;-78
2023/06/18 01:16:49;;;;;;;7.75;6.95;;;;;;;18.35;38.13;95435.50;4992945;28;20265;-78
2023/06/18 01:19:41;;;;;;;8.02;7.03;;;;;;;18.37;38.54;95430.84;4976951;28;20234;-78
2023/06/18 01:22:26;;;;;;;7.35;6.65;;;;;;;18.33;38.58;95426.22;4990706;28;20650;-79
2023/06/18 01:24:55;;;;;;;7.47;6.78;;;;;;;18.29;38.82;95428.44;4983361;28;20223;-78
2023/06/18 01:27:23;;;;;;;7.35;6.65;;;;;;;18.32;38.46;95430.66;4992917;28;20275;-79
2023/06/18 01:29:56;;;;;;;6.93;6.22;;;;;;;18.27;38.38;95430.44;4980018;28;20291;-79
2023/06/18 01:32:21;;;;;;;7.00;6.32;;;;;;;18.25;38.57;95426.38;4984384;28;20535;-79
2023/06/18 01:34:47;;;;;;;7.25;6.55;;;;;;;18.25;38.64;95427.19;4978546;28;20261;-79
2023/06/18 01:37:35;;;;;;;7.00;6.38;;;;;;;18.26;38.50;95422.75;4981734;28;20663;-79
2023/06/18 01:40:12;;;;;;;10.63;7.00;;;;;;;18.23;38.57;95415.25;5009747;28;20183;-79
2023/06/18 01:42:41;;;;;;;7.57;6.88;;;;;;;18.21;39.12;95415.47;4976733;28;20193;-77
2023/06/18 01:45:12;;;;;;;7.65;6.68;;;;;;;18.17;38.86;95414.22;4985522;28;20204;-79
2023/06/18 01:47:38;;;;;;;8.63;6.60;;;;;;;18.17;38.64;95419.47;4993628;28;20182;-77
2023/06/18 01:50:05;;;;;;;7.35;6.47;;;;;;;18.21;38.85;95420.72;5009177;28;20700;-78
2023/06/18 01:52:34;;;;;;;7.82;6.68;;;;;;;18.14;38.83;95422.50;4984664;28;20278;-77
2023/06/18 01:55:01;;;;;;;8.98;6.43;;;;;;;18.14;38.63;95417.25;4982875;28;20219;-77
2023/06/18 01:57:27;;;;;;;7.75;6.50;;;;;;;18.12;38.68;95427.16;4989368;28;20187;-78
2023/06/18 01:59:52;;;;;;;7.50;6.10;;;;;;;18.14;38.55;95416.44;4996602;28;20766;-77
2023/06/18 02:02:17;;;;;;;7.00;6.40;;;;;;;18.18;38.57;95415.84;4978396;28;20210;-78
2023/06/18 02:04:43;;;;;;;7.90;6.78;;;;;;;18.14;38.98;95416.44;5004176;28;20215;-78
2023/06/18 02:07:10;;;;;;;8.63;6.60;;;;;;;18.12;38.63;95419.28;4981291;28;20274;-78
2023/06/18 02:09:36;;;;;;;7.18;6.40;;;;;;;18.17;38.33;95419.47;4987906;28;20278;-78
2023/06/18 02:12:01;;;;;;;7.43;6.57;;;;;;;18.19;38.32;95417.47;4979439;28;20654;-77
2023/06/18 02:14:27;;;;;;;6.72;6.10;;;;;;;18.17;38.36;95419.47;4980348;28;20220;-78
2023/06/18 02:16:55;;;;;;;7.20;6.50;;;;;;;18.18;38.32;95420.28;4988683;28;20199;-78
2023/06/18 02:19:20;;;;;;;7.45;6.18;;;;;;;18.17;38.29;95419.47;4982212;28;20598;-78
2023/06/18 02:21:46;;;;;;;7.10;6.20;;;;;;;18.13;38.57;95423.53;5002449;28;20187;-78
2023/06/18 02:24:11;;;;;;;8.85;6.97;;;;;;;18.07;38.97;95430.38;4998641;28;20212;-78
2023/06/18 02:26:36;;;;;;;8.57;6.55;;;;;;;18.06;38.92;95427.94;4996887;28;20179;-78
2023/06/18 02:29:02;;;;;;;8.30;7.10;;;;;;;18.05;39.01;95435.03;4986867;28;20183;-78
2023/06/18 02:31:27;;;;;;;10.38;6.65;;;;;;;17.99;39.42;95432.34;4995427;28;20190;-78
2023/06/18 02:33:52;;;;;;;7.82;7.03;;;;;;;17.95;39.58;95429.31;4995261;28;20210;-78
2023/06/18 02:36:18;;;;;;;7.40;6.40;;;;;;;17.91;39.61;95425.44;5005533;28;20180;-78
2023/06/18 02:38:43;;;;;;;7.10;6.43;;;;;;;17.89;39.07;95421.41;4981826;28;20279;-78
2023/06/18 02:41:08;;;;;;;7.43;5.95;;;;;;;17.87;39.48;95424.22;4986054;28;20222;-78
2023/06/18 02:43:36;;;;;;;7.03;6.35;;;;;;;17.85;39.38;95420.19;4993124;28;20179;-78
2023/06/18 02:46:01;;;;;;;7.65;6.80;;;;;;;17.78;39.26;95415.72;4981255;28;20190;-78
2023/06/18 02:48:27;;;;;;;7.47;6.50;;;;;;;17.77;39.52;95413.28;4989886;28;20660;-78
2023/06/18 02:50:52;;;;;;;6.63;6.03;;;;;;;17.76;39.43;95412.47;5000357;28;20207;-78
2023/06/18 02:53:17;;;;;;;9.13;6.35;;;;;;;17.76;39.38;95407.22;4982397;28;20652;-78
2023/06/18 02:55:43;;;;;;;7.55;6.85;;;;;;;17.79;39.27;95412.06;4974454;28;20212;-78
2023/06/18 02:58:30;;;;;;;8.18;7.10;;;;;;;17.72;39.70;95415.66;4979693;28;20186;-78
2023/06/18 03:01:00;;;;;;;9.85;6.18;;;;;;;17.71;39.60;95420.13;4993443;28;20222;-79
2023/06/18 03:03:26;;;;;;;8.30;6.70;;;;;;;17.75;39.66;95420.53;5003154;28;20171;-79
2023/06/18 03:05:51;;;;;;;6.93;6.00;;;;;;;17.75;39.57;95426.59;5004038;28;20241;-78
2023/06/18 03:08:18;;;;;;;7.70;6.90;;;;;;;17.71;39.56;95420.13;5010120;28;20191;-79
2023/06/18 03:10:44;;;;;;;7.18;6.32;;;;;;;17.66;39.92;95422.47;5002955;28;20219;-79
2023/06/18 03:13:09;;;;;;;7.93;6.68;;;;;;;17.66;39.83;95424.28;5008430;28;20182;-79
2023/06/18 03:15:34;;;;;;;9.07;6.68;;;;;;;17.63;40.10;95420.25;5018152;28;20203;-79
2023/06/18 03:18:00;;;;;;;7.28;6.57;;;;;;;17.56;40.00;95422.81;4979946;28;20650;-79
2023/06/18 03:20:25;;;;;;;9.93;6.97;;;;;;;17.59;40.18;95437.41;4989324;28;20659;-79
2023/06/18 03:22:50;;;;;;;8.02;6.10;;;;;;;17.63;39.83;95432.56;4998235;28;20184;-79
2023/06/18 03:25:17;;;;;;;9.40;6.72;;;;;;;17.74;39.75;95435.47;4982008;28;20251;-79
2023/06/18 03:27:43;;;;;;;6.70;6.10;;;;;;;17.81;39.72;95431.06;4989181;28;20189;-79
2023/06/18 03:30:08;;;;;;;8.68;6.20;;;;;;;17.86;39.61;95427.88;5012533;28;20636;-79
2023/06/18 03:32:34;;;;;;;7.82;6.70;;;;;;;17.81;39.48;95425.00;4990243;28;20195;-79
2023/06/18 03:35:00;;;;;;;7.30;6.60;;;;;;;17.91;39.21;95424.63;5007539;28;20206;-79
2023/06/18 03:37:26;;;;;;;7.25;6.55;;;;;;;17.94;39.17;95429.53;4961030;28;20238;-79
2023/06/18 03:39:52;;;;;;;7.18;6.45;;;;;;;17.94;39.68;95432.97;4987243;28;20238;-78
2023/06/18 03:42:17;;;;;;;9.75;7.18;;;;;;;18.27;39.32;95429.63;4994232;28;20175;-78
2023/06/18 03:44:42;;;;;;;6.78;6.10;;;;;;;18.58;38.34;95427.28;5009954;28;20195;-79
2023/06/18 03:47:08;;;;;;;8.90;6.50;;;;;;;19.13;37.43;95427.94;5000567;28;20260;-79
2023/06/18 03:49:33;;;;;;;6.97;6.28;;;;;;;19.47;36.77;95431.34;4979724;28;20200;-79
2023/06/18 03:51:59;;;;;;;8.15;6.82;;;;;;;19.74;36.24;95432.13;4983973;28;20191;-79
2023/06/18 03:54:26;;;;;;;9.55;6.35;;;;;;;20.15;35.25;95436.25;4976412;28;20198;-79
2023/06/18 03:56:51;;;;;;;7.95;6.50;;;;;;;20.79;34.18;95438.75;4977345;28;20183;-77
2023/06/18 03:59:17;;;;;;;7.25;6.47;;;;;;;21.03;33.85;95439.81;4969184;28;20251;-79
2023/06/18 04:01:42;;;;;;;8.25;6.00;;;;;;;21.14;33.71;95439.09;4979641;28;20176;-78
2023/06/18 04:04:08;;;;;;;8.38;6.32;;;;;;;21.45;32.92;95445.34;4982371;28;20203;-78
2023/06/18 04:06:34;;;;;;;7.82;6.25;;;;;;;21.94;32.39;95443.63;5000434;28;20551;-78
2023/06/18 04:08:59;;;;;;;7.00;6.28;;;;;;;22.17;32.39;95442.97;4979154;28;20186;-78
2023/06/18 04:11:25;;;;;;;6.80;6.07;;;;;;;22.37;32.03;95438.25;4985029;28;20207;-78
2023/06/18 04:13:50;;;;;;;7.20;6.50;;;;;;;22.54;32.16;95438.44;4992769;28;20215;-78
2023/06/18 04:16:15;;;;;;;8.00;6.57;;;;;;;23.09;31.75;95431.13;4983050;28;20195;-78
2023/06/18 04:18:40;;;;;;;7.00;6.32;;;;;;;23.83;30.05;95436.00;4987462;28;20206;-78
2023/06/18 04:21:06;;;;;;;6.60;5.90;;;;;;;24.12;30.01;95434.19;4994473;28;20183;-78
2023/06/18 04:23:31;;;;;;;6.97;6.28;;;;;;;24.57;29.11;95443.09;5007423;28;20197;-78
2023/06/18 04:25:57;;;;;;;8.13;6.57;;;;;;;25.00;28.63;95444.38;4982320;28;20191;-78
2023/06/18 04:28:22;;;;;;;6.90;6.25;;;;;;;24.35;28.87;95442.13;4979203;28;20184;-79
2023/06/18 04:30:48;;;;;;;7.63;6.20;;;;;;;25.34;27.96;95441.75;4986486;28;20230;-79
2023/06/18 04:33:13;;;;;;;7.13;6.35;;;;;;;26.29;25.96;95434.56;4982240;28;20267;-78
2023/06/18 04:35:38;;;;;;;6.40;5.80;;;;;;;27.14;25.44;95435.75;4982733;28;20214;-79
2023/06/18 04:38:04;;;;;;;7.00;6.30;;;;;;;26.70;25.61;95433.97;5007363;28;20670;-79
2023/06/18 04:40:30;;;;;;;7.22;6.18;;;;;;;26.40;26.66;95431.78;4996327;28;20341;-79
2023/06/18 04:42:55;;;;;;;8.93;6.25;;;;;;;26.02;26.59;95422.00;4992204;28;20522;-79
2023/06/18 04:45:20;;;;;;;7.32;6.57;;;;;;;26.60;25.84;95431.22;4983862;28;20221;-79
2023/06/18 04:47:46;;;;;;;8.23;6.75;;;;;;;25.31;28.33;95432.41;4997866;28;20750;-79
2023/06/18 04:50:11;;;;;;;6.50;5.90;;;;;;;25.26;28.58;95432.31;4987658;28;20214;-78
2023/06/18 04:52:37;;;;;;;7.57;6.53;;;;;;;24.58;30.03;95433.28;4978334;28;20278;-79
2023/06/18 04:55:04;;;;;;;6.85;6.25;;;;;;;23.97;30.70;95424.91;4977656;28;20242;-79
2023/06/18 04:57:29;;;;;;;7.10;6.50;;;;;;;23.46;31.57;95426.44;4985191;28;20314;-79
2023/06/18 04:59:54;;;;;;;7.97;6.38;;;;;;;23.68;30.75;95429.34;4983587;28;20203;-79
2023/06/18 05:02:19;;;;;;;6.57;5.97;;;;;;;23.81;30.57;95422.97;5008167;28;20183;-79
2023/06/18 05:04:45;;;;;;;6.95;6.35;;;;;;;23.70;30.90;95434.41;4967559;28;20222;-78
2023/06/18 05:07:10;;;;;;;7.18;6.53;;;;;;;24.02;30.88;95427.66;4995931;28;20199;-78
2023/06/18 05:09:36;;;;;;;7.82;6.13;;;;;;;24.74;29.44;95427.22;4987103;28;20191;-78
2023/06/18 05:12:01;;;;;;;7.68;6.82;;;;;;;24.03;30.25;95425.84;4992369;28;20191;-77
2023/06/18 05:14:27;;;;;;;8.80;6.72;;;;;;;24.76;29.63;95424.31;5007842;28;20784;-78
2023/06/18 05:16:53;;;;;;;7.65;6.97;;;;;;;25.45;28.49;95427.59;4983055;28;20187;-78
2023/06/18 05:19:18;;;;;;;6.78;6.07;;;;;;;26.45;26.67;95431.03;4978694;28;20667;-78
2023/06/18 05:21:43;;;;;;;7.07;6.47;;;;;;;27.56;25.75;95435.75;5002557;28;20234;-77
2023/06/18 05:24:09;;;;;;;7.13;6.45;;;;;;;27.54;25.58;95437.88;4991541;28;20212;-78
2023/06/18 05:26:34;;;;;;;7.03;6.32;;;;;;;28.91;23.90;95445.75;4975652;28;20188;-78
2023/06/18 05:29:00;;;;;;;7.38;6.40;;;;;;;29.74;23.17;95440.16;4986738;28;20234;-78
2023/06/18 05:31:26;;;;;;;6.28;5.78;;;;;;;30.08;22.81;95449.19;4997049;28;20210;-77
2023/06/18 05:33:51;;;;;;;6.93;6.22;;;;;;;31.24;22.00;95447.00;4998630;28;20628;-78
2023/06/18 05:36:16;;;;;;;7.85;5.72;;;;;;;30.89;22.07;95442.66;5006253;28;20187;-78
2023/06/18 05:38:42;;;;;;;6.78;6.07;;;;;;;31.37;21.57;95452.81;4994302;28;20189;-78
2023/06/18 05:41:07;;;;;;;8.25;6.60;;;;;;;30.46;22.31;95449.56;5005608;28;20776;-79
2023/06/18 05:43:32;;;;;;;7.70;7.00;;;;;;;31.28;21.52;95447.25;4995988;28;20265;-78
2023/06/18 05:45:58;;;;;;;7.93;6.65;;;;;;;31.54;21.70;95451.31;4979681;28;20195;-78
2023/06/18 05:48:23;;;;;;;7.20;6.50;;;;;;;33.15;19.71;95448.91;4966918;28;20189;-78
2023/06/18 05:50:48;;;;;;;6.10;5.60;;;;;;;32.25;20.65;95452.50;4996630;28;20210;-78
2023/06/18 05:53:14;;;;;;;8.18;6.63;;;;;;;31.22;20.97;95451.06;4999546;28;20196;-78
2023/06/18 05:55:40;;;;;;;7.43;6.75;;;;;;;31.98;20.61;95453.06;4991589;28;20207;-78
2023/06/18 05:58:05;;;;;;;7.20;6.47;;;;;;;30.71;22.01;95451.34;4993640;28;20183;-78
2023/06/18 06:00:31;;;;;;;6.47;5.90;;;;;;;32.64;20.02;95455.00;4988024;28;20183;-78
2023/06/18 06:02:56;;;;;;;7.15;6.43;;;;;;;31.10;22.03;95448.72;4980388;28;20180;-78
2023/06/18 06:05:21;;;;;;;6.80;6.13;;;;;;;32.65;20.40;95461.16;4994426;28;20208;-78
2023/06/18 06:07:47;;;;;;;7.18;6.47;;;;;;;31.92;20.83;95453.41;4984378;28;20187;-79
2023/06/18 06:10:16;;;;;;;6.07;5.60;;;;;;;32.21;20.69;95461.41;4978949;28;20729;-78
2023/06/18 06:12:41;;;;;;;6.63;6.03;;;;;;;32.24;20.37;95461.63;4985056;28;20275;-78
2023/06/18 06:15:07;;;;;;;7.03;6.38;;;;;;;32.13;20.70;95460.16;4983320;28;20667;-78
2023/06/18 06:17:32;;;;;;;7.93;7.15;;;;;;;31.87;21.44;95456.94;4997842;28;20184;-78
2023/06/18 06:19:57;;;;;;;7.10;6.43;;;;;;;31.07;22.35;95448.44;4987291;28;20214;-78
2023/06/18 06:22:23;;;;;;;9.07;6.57;;;;;;;32.13;21.68;95454.78;4980048;28;20270;-78
2023/06/18 06:24:48;;;;;;;8.68;6.45;;;;;;;31.41;21.58;95449.28;5000638;28;20349;-78
2023/06/18 06:27:13;;;;;;;7.32;6.63;;;;;;;31.91;21.08;95454.50;4986118;28;20189;-78
2023/06/18 06:29:39;;;;;;;6.93;6.18;;;;;;;32.43;20.14;95458.25;4979780;28;20687;-78
2023/06/18 06:32:05;;;;;;;7.63;6.43;;;;;;;32.60;19.79;95458.53;5006446;28;20195;-77
2023/06/18 06:34:30;;;;;;;6.70;6.07;;;;;;;32.54;19.62;95460.50;5003523;28;20259;-78
2023/06/18 06:36:57;;;;;;;7.97;6.72;;;;;;;32.45;20.27;95462.22;4986225;28;20195;-78
2023/06/18 06:39:22;;;;;;;7.38;6.68;;;;;;;32.23;20.69;95456.53;5009639;28;20200;-78
2023/06/18 06:41:47;;;;;;;7.30;6.65;;;;;;;31.97;21.04;95456.03;5040169;28;20171;-78
2023/06/18 06:44:13;;;;;;;9.02;6.65;;;;;;;32.49;20.28;95457.06;5022693;28;20195;-77
2023/06/18 06:46:38;;;;;;;7.15;6.47;;;;;;;31.28;21.39;95445.38;5012725;28;20213;-77
2023/06/18 06:49:07;;;;;;;7.18;6.40;;;;;;;31.87;20.59;95462.31;5023197;28;20171;-77
2023/06/18 06:51:33;;;;;;;7.00;6.30;;;;;;;32.88;19.66;95463.03;5009038;28;20195;-78
2023/06/18 06:53:58;;;;;;;6.80;6.20;;;;;;;32.36;20.24;95462.06;5007752;28;20568;-78
2023/06/18 06:56:24;;;;;;;6.82;6.22;;;;;;;33.34;19.67;95467.72;4993939;28;20183;-78
2023/06/18 06:58:50;;;;;;;7.00;6.30;;;;;;;32.51;19.96;95471.84;4988173;28;20562;-78
2023/06/18 07:01:16;;;;;;;6.43;5.93;;;;;;;33.29;19.29;95469.69;4999348;28;20175;-78
2023/06/18 07:03:41;;;;;;;8.50;6.85;;;;;;;33.14;19.51;95468.03;4971355;28;20192;-78
2023/06/18 07:06:06;;;;;;;6.95;6.25;;;;;;;33.00;19.30;95467.97;4984227;28;20589;-78
2023/06/18 07:08:32;;;;;;;6.65;5.95;;;;;;;33.13;19.80;95469.09;5009285;28;20194;-78
2023/06/18 07:10:57;;;;;;;6.82;6.20;;;;;;;33.21;18.87;95479.22;4990072;28;20231;-78
2023/06/18 07:13:22;;;;;;;6.25;5.65;;;;;;;34.36;18.54;95482.09;4985683;28;20199;-79
2023/06/18 07:15:48;;;;;;;7.45;6.75;;;;;;;34.35;18.44;95480.50;4999395;28;20214;-79
2023/06/18 07:18:13;;;;;;;6.78;6.18;;;;;;;33.23;18.93;95477.06;5003837;28;20278;-78
2023/06/18 07:20:39;;;;;;;7.32;6.22;;;;;;;32.96;18.69;95473.13;4982622;28;20191;-78
2023/06/18 07:23:04;;;;;;;6.85;6.15;;;;;;;32.57;19.21;95476.03;4989289;28;20187;-79
2023/06/18 07:25:29;;;;;;;6.45;5.85;;;;;;;33.30;18.76;95482.03;5000881;28;20215;-79
2023/06/18 07:27:55;;;;;;;7.00;6.30;;;;;;;34.24;17.47;95490.69;5014808;28;20195;-78
2023/06/18 07:30:20;;;;;;;6.97;6.28;;;;;;;32.32;19.91;95479.84;4993355;28;20282;-78
2023/06/18 07:32:45;;;;;;;6.90;6.20;;;;;;;34.34;17.52;95482.41;4997763;28;20250;-79
2023/06/18 07:35:11;;;;;;;6.55;5.95;;;;;;;33.18;19.00;95475.22;4993821;28;20214;-78
2023/06/18 07:37:36;;;;;;;6.60;6.00;;;;;;;33.21;18.67;95480.00;5004908;28;20180;-79
2023/06/18 07:40:02;;;;;;;6.28;5.70;;;;;;;33.54;18.89;95485.44;4968409;28;20266;-79
2023/06/18 07:42:27;;;;;;;7.63;6.90;;;;;;;33.02;19.59;95473.03;4991056;28;20175;-79
2023/06/18 07:44:53;;;;;;;6.90;6.15;;;;;;;31.98;19.76;95471.03;4997912;28;20207;-79
2023/06/18 07:47:19;;;;;;;6.22;5.63;;;;;;;31.70;19.37;95468.06;4995384;28;20186;-78
2023/06/18 07:49:44;;;;;;;6.78;5.93;;;;;;;33.05;19.63;95469.78;4990597;28;20214;-79
2023/06/18 07:52:09;;;;;;;7.00;6.40;;;;;;;33.10;18.61;95467.00;4992874;28;20179;-79
2023/06/18 07:54:35;;;;;;;7.97;5.63;;;;;;;31.51;20.52;95472.53;4993782;28;20215;-79
2023/06/18 07:57:01;;;;;;;6.00;5.50;;;;;;;32.62;19.44;95477.88;4985871;28;20204;-79
2023/06/18 07:59:27;;;;;;;7.28;6.05;;;;;;;32.09;19.36;95472.56;5000814;28;20183;-79
2023/06/18 08:01:52;;;;;;;7.50;6.00;;;;;;;31.52;19.70;95474.94;4987833;28;20265;-79
2023/06/18 08:04:18;;;;;;;6.45;5.90;;;;;;;32.55;19.07;95472.06;5015481;28;20199;-79
2023/06/18 08:06:43;;;;;;;6.65;6.15;;;;;;;32.28;19.18;95467.25;5015192;28;20192;-76
2023/06/18 08:09:08;;;;;;;6.25;5.65;;;;;;;32.38;18.74;95473.31;5024332;28;20235;-79
2023/06/18 08:11:34;;;;;;;6.85;6.18;;;;;;;32.21;19.15;95466.78;4991811;28;20242;-78
2023/06/18 08:13:59;;;;;;;7.70;6.50;;;;;;;32.15;19.64;95468.72;4986705;28;20541;-78
2023/06/18 08:16:25;;;;;;;6.68;5.90;;;;;;;31.71;18.87;95471.56;4992893;28;20241;-78
2023/06/18 08:18:52;;;;;;;6.63;6.03;;;;;;;30.41;20.28;95473.72;4997497;28;20238;-78
2023/06/18 08:21:18;;;;;;;6.80;6.20;;;;;;;30.95;21.04;95467.56;4999513;28;20750;-77
2023/06/18 08:23:44;;;;;;;6.90;6.30;;;;;;;30.48;20.54;95473.41;4985279;28;20191;-78
2023/06/18 08:26:09;;;;;;;8.35;6.03;;;;;;;31.27;20.65;95467.09;4985764;28;20194;-78
2023/06/18 08:28:34;;;;;;;5.95;5.45;;;;;;;31.78;19.53;95462.13;4990748;28;20190;-78
2023/06/18 08:30:59;;;;;;;7.47;5.95;;;;;;;31.43;20.37;95459.72;5015110;28;20548;-79
2023/06/18 08:33:25;;;;;;;6.57;5.93;;;;;;;30.95;19.62;95459.53;4993286;28;20198;-79
2023/06/18 08:35:50;;;;;;;8.00;5.45;;;;;;;30.65;19.67;95455.94;4995296;28;20706;-79
2023/06/18 08:38:15;;;;;;;6.05;5.28;;;;;;;30.66;20.64;95459.44;4998159;28;20186;-79
2023/06/18 08:41:01;;;;;;;7.07;5.75;;;;;;;30.16;21.08;95455.88;4991323;28;20187;-79
2023/06/18 08:43:33;;;;;;;7.88;5.43;;;;;;;29.53;22.02;95453.56;4983464;28;20175;-80
2023/06/18 08:46:04;;;;;;;14.20;12.68;;;;;;;29.96;22.09;95456.69;5004635;28;20334;-79
2023/06/18 08:48:31;;;;;;;6.03;5.43;;;;;;;29.80;21.82;95457.81;4984512;28;20222;-79
2023/06/18 08:51:03;;;;;;;5.93;5.20;;;;;;;29.30;22.08;95454.06;4998719;28;20342;-79
2023/06/18 08:53:58;;;;;;;7.32;5.90;;;;;;;29.59;22.03;95457.00;5007725;28;20217;-79
2023/06/18 08:56:23;;;;;;;6.38;5.78;;;;;;;29.50;21.81;95448.72;4997784;28;20200;-80
2023/06/18 08:58:51;;;;;;;7.03;6.10;;;;;;;29.58;22.30;95450.88;4985335;28;20274;-78
2023/06/18 09:01:18;;;;;;;6.78;6.05;;;;;;;29.16;21.38;95451.13;4994484;28;20238;-79
2023/06/18 09:03:44;;;;;;;7.45;5.55;;;;;;;29.56;22.13;95455.69;4981173;28;20205;-79
2023/06/18 09:06:11;;;;;;;6.88;5.75;;;;;;;29.58;22.37;95458.88;4988763;28;20522;-78
2023/06/18 09:08:37;;;;;;;5.72;5.10;;;;;;;30.45;21.71;95450.66;4982471;28;20187;-78
2023/06/18 09:11:04;;;;;;;6.35;4.95;;;;;;;30.00;20.93;95454.28;4984106;28;20282;-79
2023/06/18 09:13:29;;;;;;;5.97;5.35;;;;;;;30.27;20.79;95453.94;4991784;28;20187;-79
2023/06/18 09:15:55;;;;;;;6.80;5.68;;;;;;;30.38;20.38;95455.50;5014937;28;20263;-78
2023/06/18 09:18:22;;;;;;;6.00;5.40;;;;;;;30.04;21.03;95448.13;4991108;28;20184;-79
2023/06/18 09:20:47;;;;;;;6.05;5.53;;;;;;;29.87;20.49;95443.06;4980126;28;20207;-78
2023/06/18 09:23:13;;;;;;;6.45;5.78;;;;;;;30.09;21.51;95442.75;4983448;28;20622;-79
2023/06/18 09:25:38;;;;;;;8.23;5.28;;;;;;;30.04;21.81;95442.75;4989420;28;20235;-79
2023/06/18 09:28:04;;;;;;;6.50;5.75;;;;;;;30.15;20.76;95441.69;4980871;28;20191;-78
2023/06/18 09:30:29;;;;;;;5.95;5.40;;;;;;;29.99;22.05;95434.72;5003078;28;20264;-78
2023/06/18 09:32:57;;;;;;;5.60;5.10;;;;;;;30.40;20.88;95429.25;4987341;28;20664;-79
2023/06/18 09:35:23;;;;;;;6.10;5.60;;;;;;;30.67;21.19;95429.69;4980380;28;20680;-78
2023/06/18 09:37:48;;;;;;;6.07;5.57;;;;;;;30.37;20.86;95435.16;4987157;28;20211;-79
2023/06/18 09:40:18;;;;;;;6.35;5.85;;;;;;;30.41;21.91;95438.91;4998527;28;20530;-79
2023/06/18 09:42:44;;;;;;;7.30;5.90;;;;;;;30.73;20.82;95431.22;4998741;28;20671;-80
2023/06/18 09:45:10;;;;;;;6.38;5.75;;;;;;;29.40;20.68;95431.84;4974660;28;20226;-79
2023/06/18 09:47:37;;;;;;;8.57;5.78;;;;;;;29.28;22.39;95432.16;4984551;28;20199;-79
2023/06/18 09:50:03;;;;;;;5.90;5.40;;;;;;;30.01;22.73;95427.22;4989253;28;20226;-79
2023/06/18 09:52:28;;;;;;;6.50;5.90;;;;;;;30.39;21.57;95433.00;4996524;28;20198;-79
2023/06/18 09:54:54;;;;;;;6.53;5.88;;;;;;;30.07;21.52;95428.84;5017604;28;20278;-79
2023/06/18 09:57:19;;;;;;;6.40;5.90;;;;;;;30.20;21.63;95426.66;4986117;28;20330;-79
2023/06/18 09:59:44;;;;;;;5.97;5.47;;;;;;;30.22;22.04;95430.69;4962924;28;20330;-79
2023/06/18 10:02:13;;;;;;;6.78;6.10;;;;;;;30.62;22.47;95418.94;4981629;28;20245;-79
2023/06/18 10:04:39;;;;;;;7.35;5.32;;;;;;;30.83;20.97;95419.63;5004086;28;20885;-79
2023/06/18 10:07:07;;;;;;;6.78;6.07;;;;;;;30.93;20.19;95416.91;4992993;28;20182;-79
2023/06/18 10:09:37;;;;;;;7.20;5.43;;;;;;;30.97;20.28;95422.50;4979528;28;20221;-79
2023/06/18 10:12:04;;;;;;;6.00;5.40;;;;;;;31.43;20.37;95414.13;5001890;28;20187;-79
2023/06/18 10:14:31;;;;;;;5.93;5.45;;;;;;;30.17;22.02;95423.44;4983270;28;20767;-79
2023/06/18 10:17:05;;;;;;;7.72;5.80;;;;;;;30.60;22.04;95415.75;4989928;28;20187;-79
2023/06/18 10:20:04;;;;;;;6.18;5.60;;;;;;;30.51;20.60;95412.06;4979749;28;20179;-79
2023/06/18 10:22:34;;;;;;;6.10;5.50;;;;;;;30.92;20.95;95419.84;4940090;29;20244;-79
2023/06/18 10:25:04;;;;;;;6.25;5.65;;;;;;;30.01;21.22;95410.34;4939471;29;20236;-79
2023/06/18 10:27:30;;;;;;;6.55;5.35;;;;;;;30.66;21.89;95408.53;4955161;29;20792;-79
2023/06/18 10:29:58;;;;;;;5.88;5.30;;;;;;;31.04;19.93;95412.28;4939532;29;20209;-79
2023/06/18 10:32:25;;;;;;;6.63;5.88;;;;;;;30.93;21.22;95416.13;4955793;28;20197;-79
2023/06/18 10:34:51;;;;;;;6.03;5.43;;;;;;;30.76;21.62;95421.06;4939775;29;20209;-79
2023/06/18 10:37:17;;;;;;;6.97;5.65;;;;;;;31.00;18.80;95401.28;4939401;29;20191;-79
2023/06/18 10:39:42;;;;;;;5.82;5.32;;;;;;;30.65;20.15;95406.88;4924094;29;20590;-79
2023/06/18 10:42:15;;;;;;;7.00;6.18;;;;;;;30.05;21.65;95406.88;4939604;29;20194;-80
2023/06/18 10:44:58;;;;;;;6.32;5.70;;;;;;;30.59;21.56;95402.63;4939382;29;20220;-80
2023/06/18 10:47:31;;;;;;;6.35;5.05;;;;;;;30.75;20.75;95406.84;4954576;28;20193;-79
2023/06/18 10:50:02;;;;;;;6.47;5.88;;;;;;;30.61;21.03;95405.81;4911234;29;20217;-79
2023/06/18 10:52:32;;;;;;;6.97;6.38;;;;;;;30.88;20.11;95397.38;4954195;29;20194;-79
2023/06/18 10:55:17;;;;;;;7.20;5.82;;;;;;;30.65;20.09;95390.81;4937716;29;20228;-79
2023/06/18 10:57:48;;;;;;;6.18;5.57;;;;;;;30.15;21.52;95396.16;4964391;28;20199;-79
2023/06/18 11:00:21;;;;;;;7.30;6.30;;;;;;;30.57;21.80;95396.72;4968592;28;20221;-79
2023/06/18 11:02:49;;;;;;;8.82;6.03;;;;;;;30.80;20.47;95389.91;4967696;28;20188;-79
2023/06/18 11:05:34;;;;;;;7.70;6.07;;;;;;;30.20;22.96;95395.31;4981512;28;20208;-79
2023/06/18 11:08:03;;;;;;;7.60;6.03;;;;;;;30.77;22.19;95388.59;4988347;28;20571;-79
2023/06/18 11:10:31;;;;;;;7.57;6.22;;;;;;;30.57;21.88;95386.84;4980846;28;20718;-79
2023/06/18 11:12:57;;;;;;;6.60;6.00;;;;;;;30.92;21.17;95385.81;4984165;28;20659;-79
2023/06/18 11:15:22;;;;;;;6.97;6.38;;;;;;;31.26;20.50;95385.81;4992183;28;20211;-79
2023/06/18 11:17:53;;;;;;;6.55;5.95;;;;;;;30.81;20.19;95386.16;4995611;28;20659;-79
2023/06/18 11:20:21;;;;;;;7.13;6.53;;;;;;;30.24;21.27;95376.84;4972822;28;20190;-79
2023/06/18 11:22:47;;;;;;;7.45;6.28;;;;;;;30.12;22.14;95374.47;4981552;28;20180;-79
2023/06/18 11:25:14;;;;;;;8.18;5.78;;;;;;;31.04;21.41;95377.41;4982938;28;20265;-79
2023/06/18 11:27:42;;;;;;;7.32;5.80;;;;;;;30.87;20.97;95372.44;4990247;28;20261;-79
2023/06/18 11:30:12;;;;;;;7.75;6.35;;;;;;;30.73;20.51;95369.59;4996050;28;20671;-79
2023/06/18 11:32:39;;;;;;;8.93;6.10;;;;;;;30.42;21.00;95362.81;4990697;28;20223;-79